Time;durP1;ratioP1;P1;durP2;ratioP2;P2;SDS_P1;SDS_P2;PMS_P1;PMS_P2;Temp;Humidity;BMP_temperature;BMP_pressure;BME280_temperature;BME280_humidity;BME280_pressure;Samples;Min_cycle;Max_cycle;Signal;HPM_P1;HPM_P2
2022/03/17 00:02:09;;;;;;;56.67;35.87;;;13.50;33.90;;;;;;4992789;28;20206;-74
2022/03/17 00:04:35;;;;;;;62.80;37.60;;;13.00;35.10;;;;;;4992445;28;20182;-74
2022/03/17 00:07:01;;;;;;;56.97;37.67;;;13.00;35.10;;;;;;4992190;28;20193;-74
2022/03/17 00:09:27;;;;;;;58.97;39.53;;;13.10;35.10;;;;;;4986723;28;20421;-74
2022/03/17 00:11:53;;;;;;;59.93;37.20;;;13.30;34.20;;;;;;4981625;28;20445;-75
2022/03/17 00:14:19;;;;;;;76.73;37.70;;;13.60;33.60;;;;;;4988219;28;20585;-74
2022/03/17 00:16:45;;;;;;;57.57;39.00;;;13.50;33.60;;;;;;4992126;28;20237;-74
2022/03/17 00:19:11;;;;;;;56.87;37.37;;;13.20;34.50;;;;;;4988272;28;20462;-74
2022/03/17 00:21:37;;;;;;;57.43;38.53;;;12.90;35.00;;;;;;4988944;28;20216;-74
2022/03/17 00:24:06;;;;;;;59.50;39.60;;;12.70;35.80;;;;;;4980782;28;20241;-74
2022/03/17 00:26:34;;;;;;;58.30;38.50;;;12.70;35.90;;;;;;4981397;28;20426;-74
2022/03/17 00:29:00;;;;;;;62.17;40.30;;;12.50;36.60;;;;;;4992442;28;20977;-74
2022/03/17 00:31:26;;;;;;;57.93;38.00;;;12.20;37.60;;;;;;4984058;28;20429;-74
2022/03/17 00:33:51;;;;;;;66.07;39.70;;;12.20;38.00;;;;;;4984217;28;20437;-74
2022/03/17 00:36:17;;;;;;;63.87;40.00;;;12.30;37.40;;;;;;4987295;28;20684;-74
2022/03/17 00:38:43;;;;;;;63.80;40.20;;;12.20;37.60;;;;;;4986192;28;20216;-73
2022/03/17 00:41:08;;;;;;;62.27;40.87;;;12.10;38.10;;;;;;4991667;28;20280;-74
2022/03/17 00:43:34;;;;;;;63.80;41.83;;;11.90;39.40;;;;;;4984552;28;20203;-74
2022/03/17 00:46:00;;;;;;;82.37;40.87;;;11.80;38.80;;;;;;4991656;28;20182;-73
2022/03/17 00:48:26;;;;;;;62.60;39.50;;;11.70;39.50;;;;;;4991987;28;20503;-73
2022/03/17 00:50:51;;;;;;;61.50;39.33;;;11.40;40.90;;;;;;4981980;28;20186;-74
2022/03/17 00:53:17;;;;;;;65.20;38.87;;;11.50;40.20;;;;;;4992067;28;20722;-74
2022/03/17 00:55:42;;;;;;;62.93;40.00;;;11.60;39.80;;;;;;4985844;28;20178;-74
2022/03/17 00:58:08;;;;;;;60.57;40.40;;;11.90;39.00;;;;;;4994862;28;20291;-74
2022/03/17 01:00:34;;;;;;;64.13;39.77;;;12.10;39.50;;;;;;4998775;28;20170;-74
2022/03/17 01:03:01;;;;;;;63.57;39.00;;;11.80;39.30;;;;;;4987908;28;20460;-75
2022/03/17 01:05:26;;;;;;;71.20;38.63;;;12.00;38.80;;;;;;4984891;28;20198;-73
2022/03/17 01:07:53;;;;;;;68.93;39.93;;;11.90;38.70;;;;;;4991771;28;20880;-74
2022/03/17 01:10:19;;;;;;;69.20;40.63;;;12.30;37.30;;;;;;4989383;28;20449;-74
2022/03/17 01:12:46;;;;;;;63.37;40.73;;;12.50;36.70;;;;;;4993602;28;20951;-74
2022/03/17 01:15:13;;;;;;;60.30;39.83;;;12.00;37.90;;;;;;5000653;28;20996;-74
2022/03/17 01:17:39;;;;;;;58.03;39.17;;;12.10;38.40;;;;;;4995120;28;20448;-74
2022/03/17 01:20:06;;;;;;;64.47;39.83;;;12.80;38.10;;;;;;4995966;28;20443;-74
2022/03/17 01:22:32;;;;;;;64.50;40.70;;;12.20;37.40;;;;;;5013417;28;20456;-74
2022/03/17 01:24:58;;;;;;;64.67;42.53;;;12.30;37.20;;;;;;4998329;28;20772;-75
2022/03/17 01:27:25;;;;;;;66.03;41.80;;;12.60;36.20;;;;;;4985544;28;20510;-74
2022/03/17 01:29:51;;;;;;;63.40;40.53;;;12.80;35.00;;;;;;4984610;28;20179;-74
2022/03/17 01:32:18;;;;;;;66.67;41.47;;;12.70;35.70;;;;;;4994993;28;20479;-74
2022/03/17 01:34:43;;;;;;;61.87;42.53;;;13.00;35.10;;;;;;4985579;28;20433;-75
2022/03/17 01:37:09;;;;;;;67.60;44.07;;;12.90;35.00;;;;;;4995252;28;20452;-74
2022/03/17 01:39:35;;;;;;;67.33;43.57;;;13.40;35.50;;;;;;4987387;28;20182;-75
2022/03/17 01:42:05;;;;;;;64.97;42.17;;;12.90;35.10;;;;;;4990640;28;20907;-75
2022/03/17 01:44:31;;;;;;;64.00;41.10;;;12.20;36.10;;;;;;4997556;28;21012;-74
2022/03/17 01:49:42;;;;;;;67.40;41.37;;;11.90;38.30;;;;;;4988790;28;20658;-74
2022/03/17 01:52:08;;;;;;;74.90;42.93;;;12.00;37.80;;;;;;4995679;28;20421;-75
2022/03/17 01:54:35;;;;;;;71.07;39.80;;;11.90;38.30;;;;;;4988135;28;20977;-74
2022/03/17 01:57:03;;;;;;;69.60;41.47;;;11.60;38.90;;;;;;4995018;28;20428;-75
2022/03/17 01:59:31;;;;;;;75.13;45.10;;;11.40;39.30;;;;;;4996497;28;20898;-74
2022/03/17 02:02:02;;;;;;;71.40;42.53;;;11.50;38.70;;;;;;4985472;28;20471;-74
2022/03/17 02:04:28;;;;;;;68.77;43.10;;;11.70;38.70;;;;;;4991824;28;20417;-74
2022/03/17 02:06:55;;;;;;;63.40;42.17;;;11.70;38.50;;;;;;4993599;28;20973;-75
2022/03/17 02:09:24;;;;;;;66.73;42.73;;;11.80;38.00;;;;;;4984079;28;20462;-74
2022/03/17 02:14:35;;;;;;;71.83;41.47;;;12.00;37.50;;;;;;4989433;28;20431;-74
2022/03/17 02:17:01;;;;;;;71.90;44.70;;;11.90;38.60;;;;;;4992046;28;20431;-74
2022/03/17 02:19:27;;;;;;;70.00;43.10;;;11.70;38.60;;;;;;4985117;28;20487;-74
2022/03/17 02:21:53;;;;;;;68.87;43.77;;;11.10;39.50;;;;;;4987159;28;20469;-74
2022/03/17 02:27:03;;;;;;;71.33;43.13;;;11.20;39.80;;;;;;4992280;28;20444;-74
2022/03/17 02:29:31;;;;;;;68.40;43.33;;;11.20;39.80;;;;;;4989528;28;20418;-75
2022/03/17 02:31:58;;;;;;;69.10;45.07;;;11.20;39.50;;;;;;4992108;28;20935;-74
2022/03/17 02:34:23;;;;;;;74.20;45.10;;;11.50;38.60;;;;;;4986838;28;20429;-75
2022/03/17 02:36:50;;;;;;;80.87;46.70;;;11.60;38.40;;;;;;4987024;28;20843;-74
2022/03/17 02:39:18;;;;;;;72.07;46.20;;;11.60;38.80;;;;;;4985285;28;20182;-74
2022/03/17 02:41:44;;;;;;;73.57;45.20;;;11.50;38.50;;;;;;4998208;28;20479;-75
2022/03/17 02:44:10;;;;;;;73.70;45.43;;;11.50;38.50;;;;;;4988743;28;20871;-74
2022/03/17 02:46:36;;;;;;;72.87;45.23;;;11.40;39.30;;;;;;4992639;28;20448;-74
2022/03/17 02:49:03;;;;;;;70.13;45.10;;;11.50;38.40;;;;;;4992999;28;20445;-75
2022/03/17 02:51:29;;;;;;;70.37;46.00;;;11.20;39.00;;;;;;4993932;28;20193;-75
2022/03/17 02:53:54;;;;;;;73.40;43.77;;;11.10;40.00;;;;;;4988361;28;20422;-75
2022/03/17 02:56:20;;;;;;;75.30;45.60;;;11.00;39.80;;;;;;4992506;28;20193;-75
2022/03/17 02:58:46;;;;;;;67.13;43.30;;;11.20;39.70;;;;;;4986985;28;20265;-75
2022/03/17 03:01:11;;;;;;;74.07;45.93;;;10.90;40.20;;;;;;4994043;28;20205;-74
2022/03/17 03:03:37;;;;;;;73.57;46.23;;;11.00;40.60;;;;;;4993900;28;20185;-75
2022/03/17 03:06:03;;;;;;;75.63;48.00;;;11.00;40.10;;;;;;4993965;28;20173;-75
2022/03/17 03:08:29;;;;;;;71.53;46.13;;;11.30;40.00;;;;;;4993710;28;20277;-75
2022/03/17 03:10:57;;;;;;;75.83;45.87;;;11.50;39.20;;;;;;4993891;28;20228;-75
2022/03/17 03:13:22;;;;;;;74.40;48.17;;;11.90;37.40;;;;;;5002351;28;20451;-75
2022/03/17 03:15:50;;;;;;;70.13;45.47;;;11.70;37.60;;;;;;5013649;28;20447;-74
2022/03/17 03:18:16;;;;;;;75.80;47.17;;;11.50;37.80;;;;;;4993741;28;20479;-74
2022/03/17 03:20:42;;;;;;;83.30;46.20;;;11.50;38.30;;;;;;4987960;28;20780;-74
2022/03/17 03:23:08;;;;;;;75.97;45.00;;;11.40;38.20;;;;;;4987188;28;20480;-74
2022/03/17 03:25:34;;;;;;;69.63;46.23;;;11.50;39.60;;;;;;4992956;28;20174;-74
2022/03/17 03:28:07;;;;;;;71.90;46.43;;;11.60;38.00;;;;;;4985679;28;20967;-74
2022/03/17 03:30:33;;;;;;;71.00;45.07;;;11.20;38.80;;;;;;4982382;28;20267;-73
2022/03/17 03:32:59;;;;;;;68.30;44.67;;;11.10;39.50;;;;;;4980443;28;20524;-73
2022/03/17 03:40:43;;;;;;;70.43;46.10;;;10.70;40.20;;;;;;4986328;28;20469;-72
2022/03/17 03:43:08;;;;;;;72.40;46.50;;;10.50;40.90;;;;;;4992100;28;20480;-72
2022/03/17 03:45:34;;;;;;;78.57;46.90;;;10.70;40.70;;;;;;4990093;28;20182;-71
2022/03/17 03:48:00;;;;;;;76.53;45.20;;;10.60;40.90;;;;;;4986698;28;20205;-71
2022/03/17 03:50:25;;;;;;;73.93;45.97;;;10.50;41.00;;;;;;4992443;28;20194;-71
2022/03/17 03:52:51;;;;;;;75.10;46.87;;;10.90;40.40;;;;;;4988357;28;20528;-72
2022/03/17 03:55:17;;;;;;;81.33;49.13;;;11.30;38.40;;;;;;4980603;28;20169;-72
2022/03/17 03:57:46;;;;;;;74.33;46.07;;;11.30;38.70;;;;;;4992181;28;20181;-72
2022/03/17 04:02:43;;;;;;;74.67;45.80;;;11.00;39.30;;;;;;4989157;28;21164;-71
2022/03/17 04:05:10;;;;;;;79.27;48.40;;;10.90;39.20;;;;;;4986965;28;20868;-71
2022/03/17 04:07:37;;;;;;;75.27;47.27;;;11.00;39.30;;;;;;4979514;28;20177;-72
2022/03/17 04:10:03;;;;;;;73.43;46.70;;;11.30;39.10;;;;;;4990943;28;20496;-71
2022/03/17 04:12:29;;;;;;;73.90;46.77;;;11.30;38.50;;;;;;4984122;28;20429;-71
2022/03/17 04:14:56;;;;;;;75.30;46.30;;;11.40;38.30;;;;;;4988656;28;20426;-72
2022/03/17 04:17:21;;;;;;;79.00;47.57;;;11.40;38.10;;;;;;4985944;28;20187;-71
2022/03/17 04:19:47;;;;;;;73.23;47.10;;;11.30;38.50;;;;;;4983530;28;20453;-71
2022/03/17 04:22:13;;;;;;;77.93;48.80;;;11.50;38.50;;;;;;4990792;28;20208;-72
2022/03/17 04:24:38;;;;;;;75.17;47.90;;;11.90;36.70;;;;;;4991386;28;20186;-71
2022/03/17 04:27:06;;;;;;;81.43;48.17;;;12.30;35.40;;;;;;4984437;28;20263;-72
2022/03/17 04:29:32;;;;;;;80.43;47.83;;;12.40;35.30;;;;;;4991651;28;20186;-71
2022/03/17 04:31:58;;;;;;;78.40;48.23;;;12.40;34.60;;;;;;4990782;28;21005;-71
2022/03/17 04:34:24;;;;;;;78.90;46.77;;;12.20;35.40;;;;;;4986064;28;20198;-71
2022/03/17 04:36:50;;;;;;;73.73;48.60;;;12.20;35.50;;;;;;4981811;28;20194;-71
2022/03/17 04:39:16;;;;;;;84.37;48.33;;;11.90;36.20;;;;;;4984709;28;20464;-71
2022/03/17 04:41:42;;;;;;;77.17;47.17;;;11.60;36.60;;;;;;4991795;28;20548;-71
2022/03/17 04:44:13;;;;;;;78.73;49.23;;;11.50;37.30;;;;;;4991522;28;20876;-71
2022/03/17 04:46:40;;;;;;;85.10;49.43;;;11.80;36.70;;;;;;4984712;28;20206;-71
2022/03/17 04:49:06;;;;;;;81.63;49.80;;;11.90;36.00;;;;;;4982157;28;20496;-72
2022/03/17 04:51:32;;;;;;;73.97;46.07;;;12.00;36.00;;;;;;4991838;28;20428;-72
2022/03/17 04:53:59;;;;;;;78.10;49.53;;;12.20;35.40;;;;;;4982434;28;20432;-72
2022/03/17 04:56:25;;;;;;;77.50;48.80;;;12.10;35.40;;;;;;4983910;28;20476;-71
2022/03/17 04:58:50;;;;;;;79.33;49.83;;;12.40;35.40;;;;;;4989222;28;21015;-72
2022/03/17 05:01:16;;;;;;;93.00;51.47;;;11.90;36.30;;;;;;4990498;28;20202;-72
2022/03/17 05:03:42;;;;;;;76.00;46.50;;;11.90;35.40;;;;;;4985150;28;20205;-71
2022/03/17 05:06:12;;;;;;;84.43;48.57;;;11.60;36.50;;;;;;4980531;28;20426;-71
2022/03/17 05:08:38;;;;;;;77.43;48.37;;;11.60;36.40;;;;;;4982034;28;20444;-71
2022/03/17 05:11:06;;;;;;;77.03;50.27;;;11.80;36.40;;;;;;4983019;28;20445;-71
2022/03/17 05:13:32;;;;;;;87.93;50.20;;;12.30;34.50;;;;;;4986596;28;20422;-71
2022/03/17 05:15:59;;;;;;;79.67;48.90;;;12.20;34.40;;;;;;4987657;28;20425;-71
2022/03/17 05:18:25;;;;;;;77.30;47.27;;;12.30;35.20;;;;;;4979950;28;20541;-71
2022/03/17 05:20:51;;;;;;;79.00;49.20;;;12.20;34.70;;;;;;4980396;28;20429;-71
2022/03/17 05:23:20;;;;;;;83.83;51.20;;;12.10;34.70;;;;;;4989525;28;20942;-71
2022/03/17 05:25:48;;;;;;;80.00;48.60;;;12.30;34.50;;;;;;4980327;28;20193;-71
2022/03/17 05:28:14;;;;;;;84.73;48.90;;;12.80;34.40;;;;;;4980401;28;20437;-71
2022/03/17 05:30:42;;;;;;;87.87;49.30;;;12.50;33.50;;;;;;4987033;28;20432;-72
2022/03/17 05:33:07;;;;;;;85.63;47.57;;;12.20;34.30;;;;;;4975505;28;21006;-71
2022/03/17 05:35:34;;;;;;;78.47;47.83;;;12.80;34.10;;;;;;4991362;28;20538;-71
2022/03/17 05:38:00;;;;;;;75.43;47.23;;;12.60;33.90;;;;;;4984309;28;20183;-71
2022/03/17 05:40:27;;;;;;;79.40;48.90;;;12.40;34.30;;;;;;4989142;28;20493;-71
2022/03/17 05:42:55;;;;;;;78.23;48.97;;;12.40;34.70;;;;;;4981832;28;20460;-71
2022/03/17 05:45:22;;;;;;;76.70;48.10;;;12.60;34.80;;;;;;4992577;28;20459;-71
2022/03/17 05:47:49;;;;;;;82.20;49.07;;;12.30;34.70;;;;;;4994094;28;20448;-71
2022/03/17 05:50:20;;;;;;;77.67;49.03;;;12.00;35.00;;;;;;4985794;28;20829;-71
2022/03/17 05:52:47;;;;;;;83.53;48.80;;;11.40;37.10;;;;;;4984783;28;20424;-70
2022/03/17 05:55:14;;;;;;;80.43;48.93;;;11.20;37.70;;;;;;4986383;28;20479;-71
2022/03/17 05:57:42;;;;;;;95.20;51.63;;;11.30;37.20;;;;;;4979465;28;20520;-71
2022/03/17 06:00:10;;;;;;;79.37;49.00;;;12.10;37.00;;;;;;4994790;28;20467;-71
2022/03/17 06:02:37;;;;;;;85.17;51.30;;;12.00;35.40;;;;;;4985596;28;20476;-72
2022/03/17 06:05:04;;;;;;;81.60;50.83;;;12.20;35.50;;;;;;4989396;28;20425;-72
2022/03/17 06:07:40;;;;;;;77.17;49.37;;;12.70;33.50;;;;;;4990848;28;20483;-71
2022/03/17 06:10:11;;;;;;;82.83;49.00;;;12.50;34.70;;;;;;4980333;28;20527;-71
2022/03/17 06:12:38;;;;;;;78.63;48.60;;;12.50;34.70;;;;;;4987541;28;20418;-71
2022/03/17 06:15:04;;;;;;;82.53;50.50;;;12.60;34.60;;;;;;4994359;28;20425;-71
2022/03/17 06:17:40;;;;;;;84.83;49.50;;;12.80;33.20;;;;;;4985346;28;20441;-71
2022/03/17 06:20:11;;;;;;;80.63;49.50;;;12.70;34.90;;;;;;4987702;28;20444;-71
2022/03/17 06:22:39;;;;;;;73.73;46.10;;;12.60;34.70;;;;;;4990837;28;20468;-72
2022/03/17 06:25:05;;;;;;;80.90;48.30;;;12.50;34.70;;;;;;4986502;28;20774;-72
2022/03/17 06:27:31;;;;;;;77.37;46.43;;;12.60;34.80;;;;;;4986359;28;20247;-72
2022/03/17 06:29:56;;;;;;;80.40;48.67;;;12.30;35.20;;;;;;4993484;28;20444;-72
2022/03/17 06:32:24;;;;;;;74.43;47.37;;;12.20;35.20;;;;;;4988213;28;20190;-71
2022/03/17 06:34:49;;;;;;;74.63;47.40;;;12.50;34.70;;;;;;4984233;28;20539;-71
2022/03/17 06:37:15;;;;;;;98.13;48.90;;;12.50;34.70;;;;;;4987801;28;20427;-72
2022/03/17 06:39:41;;;;;;;82.97;48.70;;;12.60;34.80;;;;;;4992335;28;20217;-72
2022/03/17 06:42:07;;;;;;;82.87;47.60;;;12.80;33.30;;;;;;4986294;28;20214;-72
2022/03/17 06:44:32;;;;;;;82.83;49.97;;;12.70;33.80;;;;;;4979934;28;20250;-71
2022/03/17 06:46:58;;;;;;;83.33;49.43;;;12.80;33.40;;;;;;4992639;28;20436;-71
2022/03/17 06:49:24;;;;;;;88.73;50.40;;;12.70;34.70;;;;;;4988350;28;20571;-72
2022/03/17 06:51:49;;;;;;;78.87;47.90;;;12.80;33.60;;;;;;4993494;28;20182;-72
2022/03/17 06:54:15;;;;;;;116.90;48.40;;;12.80;33.60;;;;;;4993403;28;20201;-72
2022/03/17 06:56:40;;;;;;;184.23;52.63;;;12.90;34.60;;;;;;4986526;28;20178;-71
2022/03/17 06:59:06;;;;;;;106.77;49.70;;;12.90;35.10;;;;;;4982767;28;20643;-72
2022/03/17 07:01:32;;;;;;;82.07;48.23;;;13.00;34.10;;;;;;4992197;28;20202;-72
2022/03/17 07:03:57;;;;;;;68.97;43.33;;;12.80;34.50;;;;;;4977400;28;20396;-71
2022/03/17 07:06:23;;;;;;;93.03;41.10;;;12.10;36.30;;;;;;4992817;28;20173;-71
2022/03/17 07:08:48;;;;;;;79.70;43.00;;;11.60;40.10;;;;;;4993329;28;20329;-71
2022/03/17 07:11:14;;;;;;;85.53;48.60;;;12.10;37.00;;;;;;4992422;28;20202;-71
2022/03/17 07:13:39;;;;;;;76.67;44.67;;;12.30;35.00;;;;;;4989985;28;20182;-72
2022/03/17 07:16:05;;;;;;;68.83;41.23;;;12.00;36.50;;;;;;4983976;28;20643;-71
2022/03/17 07:18:31;;;;;;;70.17;39.23;;;11.90;38.60;;;;;;4992218;28;20229;-71
2022/03/17 07:20:59;;;;;;;83.97;42.00;;;11.60;39.80;;;;;;4984858;28;20182;-71
2022/03/17 07:23:24;;;;;;;71.43;38.17;;;11.90;39.60;;;;;;4985206;28;20701;-71
2022/03/17 07:25:50;;;;;;;79.00;36.70;;;12.60;39.40;;;;;;4986697;28;20430;-72
2022/03/17 07:28:18;;;;;;;79.53;35.80;;;12.10;39.80;;;;;;4989070;28;20206;-71
2022/03/17 07:30:43;;;;;;;73.13;40.03;;;12.40;39.30;;;;;;4987523;28;20213;-72
2022/03/17 07:33:10;;;;;;;61.40;36.90;;;12.50;38.90;;;;;;4990720;28;20468;-72
2022/03/17 07:35:36;;;;;;;75.23;35.27;;;11.90;39.90;;;;;;4981051;28;20274;-71
2022/03/17 07:38:03;;;;;;;66.47;38.10;;;10.90;44.60;;;;;;4981510;28;20877;-73
2022/03/17 07:40:29;;;;;;;63.93;38.13;;;11.40;43.10;;;;;;5003310;28;20436;-77
2022/03/17 07:42:55;;;;;;;62.00;36.67;;;11.50;41.80;;;;;;4994658;28;20449;-74
2022/03/17 07:45:21;;;;;;;58.17;36.50;;;11.20;44.00;;;;;;4983079;28;20232;-75
2022/03/17 07:47:47;;;;;;;59.43;37.33;;;11.80;41.40;;;;;;4987145;28;20178;-75
2022/03/17 07:50:14;;;;;;;66.63;36.63;;;11.10;44.20;;;;;;4982172;28;20589;-74
2022/03/17 07:52:39;;;;;;;66.40;37.60;;;11.30;43.10;;;;;;4988327;28;20854;-74
2022/03/17 07:55:06;;;;;;;78.60;37.70;;;11.70;42.20;;;;;;4992646;28;20524;-74
2022/03/17 07:57:32;;;;;;;65.00;37.43;;;11.80;41.70;;;;;;4992707;28;20930;-74
2022/03/17 07:59:58;;;;;;;63.77;39.07;;;12.70;40.20;;;;;;4992625;28;20480;-74
2022/03/17 08:02:25;;;;;;;56.83;36.80;;;12.80;38.20;;;;;;4992805;28;20503;-74
2022/03/17 08:04:52;;;;;;;72.67;37.30;;;12.90;38.00;;;;;;4992821;28;20508;-74
2022/03/17 08:07:17;;;;;;;60.10;36.70;;;12.80;37.70;;;;;;4992295;28;20418;-74
2022/03/17 08:09:43;;;;;;;64.23;39.37;;;13.10;37.10;;;;;;4991192;28;20514;-74
2022/03/17 08:12:09;;;;;;;77.77;37.83;;;13.50;36.50;;;;;;4987736;28;20183;-71
2022/03/17 08:14:35;;;;;;;68.70;40.17;;;13.70;35.00;;;;;;4981145;28;20186;-71
2022/03/17 08:17:00;;;;;;;61.90;39.63;;;13.90;34.70;;;;;;4991677;28;20515;-71
2022/03/17 08:19:26;;;;;;;66.37;39.50;;;13.60;35.70;;;;;;4987352;28;20263;-71
2022/03/17 08:21:52;;;;;;;61.80;37.37;;;14.00;36.60;;;;;;5005674;28;20207;-71
2022/03/17 08:24:18;;;;;;;61.00;37.40;;;13.60;35.70;;;;;;4983811;28;20176;-71
2022/03/17 08:26:44;;;;;;;71.83;40.60;;;13.60;36.20;;;;;;4991646;28;20430;-71
2022/03/17 08:29:09;;;;;;;71.87;42.30;;;13.70;35.80;;;;;;4987851;28;20229;-72
2022/03/17 08:31:35;;;;;;;70.60;41.30;;;13.30;36.70;;;;;;4981320;28;20192;-71
2022/03/17 08:34:01;;;;;;;64.00;41.60;;;13.30;36.40;;;;;;4989137;28;20190;-70
2022/03/17 08:36:27;;;;;;;80.40;42.70;;;13.40;36.50;;;;;;4986495;28;20178;-70
2022/03/17 08:38:53;;;;;;;68.93;42.30;;;13.70;34.90;;;;;;4990701;28;20296;-70
2022/03/17 08:41:19;;;;;;;78.47;44.27;;;13.40;35.80;;;;;;4983621;28;20518;-71
2022/03/17 08:43:46;;;;;;;66.57;43.10;;;13.20;36.30;;;;;;4984985;28;20513;-70
2022/03/17 08:51:40;;;;;;;78.23;44.00;;;12.80;38.20;;;;;;4986896;28;20524;-71
2022/03/17 08:54:05;;;;;;;74.33;42.20;;;13.10;37.80;;;;;;4985906;28;20548;-71
2022/03/17 08:56:32;;;;;;;73.73;42.17;;;13.30;37.40;;;;;;4977885;28;20236;-71
2022/03/17 08:59:00;;;;;;;75.97;42.60;;;13.50;36.50;;;;;;4981360;28;20275;-71
2022/03/17 09:01:26;;;;;;;73.53;40.90;;;13.70;35.40;;;;;;4991523;28;20543;-70
2022/03/17 09:03:53;;;;;;;72.23;42.53;;;12.30;38.50;;;;;;4983459;28;20524;-71
2022/03/17 09:06:18;;;;;;;70.97;43.67;;;12.10;41.70;;;;;;4988574;28;20845;-70
2022/03/17 09:08:44;;;;;;;97.27;44.33;;;12.50;41.50;;;;;;4990409;28;20458;-74
2022/03/17 09:11:13;;;;;;;72.80;42.50;;;12.60;41.00;;;;;;4981677;28;20186;-71
2022/03/17 09:13:39;;;;;;;80.53;42.73;;;12.70;39.90;;;;;;4985675;28;20190;-69
2022/03/17 09:16:06;;;;;;;62.10;41.43;;;13.30;38.60;;;;;;4979962;28;20437;-70
2022/03/17 09:18:32;;;;;;;67.63;41.20;;;14.00;37.30;;;;;;4992300;28;20508;-71
2022/03/17 09:21:01;;;;;;;75.33;42.73;;;14.30;36.30;;;;;;4986888;28;20420;-70
2022/03/17 09:23:29;;;;;;;70.50;42.73;;;14.00;35.00;;;;;;4983928;28;20446;-73
2022/03/17 09:25:55;;;;;;;96.43;42.60;;;13.00;38.50;;;;;;4990595;28;20417;-72
2022/03/17 09:28:22;;;;;;;65.17;39.97;;;13.20;37.60;;;;;;4990272;28;20437;-72
2022/03/17 09:30:51;;;;;;;66.20;40.40;;;12.90;37.90;;;;;;4988286;28;20884;-73
2022/03/17 09:33:17;;;;;;;65.47;42.97;;;12.60;39.50;;;;;;4989444;28;20438;-74
2022/03/17 09:35:43;;;;;;;67.73;40.27;;;12.60;40.70;;;;;;4986187;28;20434;-73
2022/03/17 09:38:09;;;;;;;65.63;37.77;;;12.90;39.10;;;;;;4993744;28;20435;-73
2022/03/17 09:40:36;;;;;;;69.07;40.10;;;13.00;38.60;;;;;;4987926;28;20474;-74
2022/03/17 09:43:18;;;;;;;63.57;41.60;;;13.30;37.70;;;;;;4987027;28;20566;-74
2022/03/17 09:45:46;;;;;;;73.73;40.20;;;13.60;37.60;;;;;;4988366;28;20462;-73
2022/03/17 09:48:13;;;;;;;68.27;40.97;;;13.80;36.40;;;;;;4986355;28;20431;-72
2022/03/17 09:50:40;;;;;;;69.20;41.60;;;13.80;36.80;;;;;;4990662;28;20427;-73
2022/03/17 09:53:07;;;;;;;61.77;40.10;;;13.90;36.70;;;;;;4990802;28;20427;-73
2022/03/17 09:55:34;;;;;;;62.33;39.17;;;13.70;36.90;;;;;;4989697;28;20454;-73
2022/03/17 09:58:00;;;;;;;65.30;38.80;;;13.50;37.50;;;;;;4990060;28;20417;-73
2022/03/17 10:00:47;;;;;;;64.27;39.90;;;12.80;39.20;;;;;;4986167;28;20447;-73
2022/03/17 10:03:11;;;;;;;67.37;40.77;;;12.00;42.20;;;;;;4978871;28;20491;-73
2022/03/17 10:05:37;;;;;;;71.50;41.70;;;12.00;42.50;;;;;;4985354;28;20455;-73
2022/03/17 10:08:03;;;;;;;66.13;39.67;;;12.30;42.20;;;;;;4988295;28;20180;-73
2022/03/17 10:10:39;;;;;;;64.73;39.27;;;12.50;41.40;;;;;;4982312;28;20196;-73
2022/03/17 10:13:19;;;;;;;75.50;38.50;;;12.30;41.50;;;;;;4985098;28;20544;-73
2022/03/17 10:15:47;;;;;;;69.27;41.50;;;12.30;41.80;;;;;;4991114;28;20515;-73
2022/03/17 10:18:25;;;;;;;95.93;40.10;;;12.70;42.80;;;;;;4985667;28;20448;-73
2022/03/17 10:21:11;;;;;;;61.83;38.40;;;12.30;42.40;;;;;;4978689;28;20431;-74
2022/03/17 10:23:48;;;;;;;68.57;38.17;;;12.90;42.40;;;;;;4985287;28;20428;-73
2022/03/17 10:26:50;;;;;;;65.60;40.70;;;13.10;39.90;;;;;;4993701;28;20964;-73
2022/03/17 10:29:17;;;;;;;57.80;38.37;;;13.40;37.80;;;;;;4899730;29;20891;-73
2022/03/17 10:32:01;;;;;;;70.00;38.30;;;13.80;37.10;;;;;;4895951;29;20488;-73
2022/03/17 10:34:55;;;;;;;80.83;40.40;;;13.60;37.40;;;;;;4900661;29;20972;-73
2022/03/17 10:37:22;;;;;;;61.23;39.37;;;13.90;36.00;;;;;;4910318;29;20429;-74
2022/03/17 10:39:56;;;;;;;76.63;41.67;;;14.00;36.10;;;;;;4902541;29;20524;-74
2022/03/17 10:42:30;;;;;;;74.03;41.80;;;14.50;36.60;;;;;;4903098;29;20547;-74
2022/03/17 10:45:05;;;;;;;70.20;42.43;;;14.40;35.10;;;;;;4905856;29;21005;-73
2022/03/17 10:47:33;;;;;;;76.90;42.70;;;14.40;34.50;;;;;;4897296;29;21026;-73
2022/03/17 10:50:10;;;;;;;66.80;41.67;;;14.30;34.60;;;;;;4896066;29;21002;-73
2022/03/17 10:52:46;;;;;;;69.10;42.17;;;14.50;34.80;;;;;;4903555;29;20440;-74
2022/03/17 10:55:13;;;;;;;67.60;43.00;;;14.70;34.40;;;;;;4899788;29;20528;-71
2022/03/17 10:57:39;;;;;;;70.10;43.77;;;15.00;34.30;;;;;;4890010;29;20449;-71
2022/03/17 11:00:09;;;;;;;62.30;42.30;;;15.10;33.00;;;;;;4895862;29;20459;-73
2022/03/17 11:02:37;;;;;;;67.67;43.83;;;15.30;32.00;;;;;;4920748;28;20472;-72
2022/03/17 11:05:06;;;;;;;61.23;42.07;;;15.70;31.50;;;;;;4986182;28;20523;-72
2022/03/17 11:07:32;;;;;;;67.77;44.10;;;15.50;31.30;;;;;;4992725;28;20465;-72
2022/03/17 11:10:05;;;;;;;66.83;39.77;;;15.60;32.10;;;;;;4986648;28;20456;-73
2022/03/17 11:12:31;;;;;;;65.47;40.90;;;15.70;32.00;;;;;;4985285;28;20415;-72
2022/03/17 11:14:57;;;;;;;73.30;39.73;;;16.10;30.10;;;;;;4984777;28;20439;-72
2022/03/17 11:17:35;;;;;;;73.63;41.90;;;16.10;30.70;;;;;;4986674;28;20926;-72
2022/03/17 11:20:06;;;;;;;72.43;40.60;;;16.20;30.40;;;;;;4992782;28;20440;-72
2022/03/17 11:22:33;;;;;;;77.93;42.67;;;16.10;30.90;;;;;;4978603;28;20463;-71
2022/03/17 11:25:25;;;;;;;61.77;39.77;;;15.80;33.00;;;;;;4990961;28;20425;-72
2022/03/17 11:27:56;;;;;;;67.17;40.03;;;15.60;31.90;;;;;;4986834;28;20429;-71
2022/03/17 11:30:27;;;;;;;77.63;40.30;;;15.20;32.10;;;;;;4987462;28;20998;-72
2022/03/17 11:32:55;;;;;;;68.50;41.40;;;15.30;32.80;;;;;;4989792;28;20822;-72
2022/03/17 11:35:25;;;;;;;66.83;39.20;;;15.80;31.70;;;;;;4985168;28;20447;-72
2022/03/17 11:38:13;;;;;;;64.07;40.30;;;15.90;31.00;;;;;;4980623;28;20922;-71
2022/03/17 11:41:02;;;;;;;65.80;39.00;;;16.40;30.20;;;;;;4991751;28;20468;-71
2022/03/17 11:43:57;;;;;;;78.40;39.00;;;16.10;31.20;;;;;;4987453;28;20479;-72
2022/03/17 11:46:25;;;;;;;71.30;40.23;;;16.10;31.20;;;;;;4987092;28;20915;-71
2022/03/17 11:48:56;;;;;;;67.93;39.60;;;16.20;30.00;;;;;;4984123;28;20442;-71
2022/03/17 11:51:23;;;;;;;61.97;37.90;;;16.30;30.80;;;;;;4988092;28;20810;-71
2022/03/17 11:53:51;;;;;;;73.33;40.77;;;16.10;30.50;;;;;;4989130;28;20952;-71
2022/03/17 11:56:42;;;;;;;75.17;38.97;;;15.80;31.10;;;;;;4984786;28;20436;-74
2022/03/17 11:59:12;;;;;;;63.33;39.10;;;15.60;31.90;;;;;;4984163;28;20531;-73
2022/03/17 12:01:43;;;;;;;72.80;41.53;;;15.40;32.10;;;;;;4990395;28;20461;-73
2022/03/17 12:04:20;;;;;;;66.87;40.10;;;15.50;31.90;;;;;;4984815;28;20462;-74
2022/03/17 12:07:19;;;;;;;82.90;40.63;;;14.70;34.00;;;;;;5015372;28;20409;-73
2022/03/17 12:09:45;;;;;;;72.50;39.77;;;14.30;35.80;;;;;;4969932;28;21013;-72
2022/03/17 12:12:22;;;;;;;67.67;41.63;;;14.40;36.40;;;;;;4983689;28;20424;-72
2022/03/17 12:14:49;;;;;;;71.07;43.60;;;13.90;36.00;;;;;;4983088;28;20425;-74
2022/03/17 12:17:17;;;;;;;73.90;44.50;;;14.20;36.30;;;;;;4983806;28;20430;-73
2022/03/17 12:19:48;;;;;;;74.17;41.03;;;14.70;35.20;;;;;;4984687;28;20441;-73
2022/03/17 12:22:18;;;;;;;70.43;42.27;;;15.00;34.90;;;;;;4975253;28;20492;-74
2022/03/17 12:25:03;;;;;;;62.30;40.70;;;14.70;35.20;;;;;;4984527;28;20425;-72
2022/03/17 12:27:30;;;;;;;68.83;42.47;;;14.50;35.50;;;;;;4983996;28;20459;-73
2022/03/17 12:29:59;;;;;;;60.87;40.00;;;14.60;36.40;;;;;;4985827;28;20552;-73
2022/03/17 12:32:40;;;;;;;70.80;41.50;;;14.90;35.40;;;;;;4989121;28;20426;-73
2022/03/17 12:35:09;;;;;;;67.40;41.47;;;15.70;33.40;;;;;;4986635;28;20839;-74
2022/03/17 12:37:36;;;;;;;76.83;40.70;;;16.00;31.80;;;;;;4981289;28;20426;-73
2022/03/17 12:40:20;;;;;;;62.90;39.43;;;16.30;31.30;;;;;;4981065;28;20452;-73
2022/03/17 12:42:48;;;;;;;76.03;39.90;;;16.40;31.00;;;;;;4979182;28;20476;-72
2022/03/17 12:45:16;;;;;;;65.17;38.40;;;16.50;30.30;;;;;;4991399;28;20727;-72
2022/03/17 12:47:46;;;;;;;66.37;39.90;;;16.20;31.00;;;;;;4979585;28;20426;-73
2022/03/17 12:50:18;;;;;;;69.47;39.93;;;15.90;33.20;;;;;;4988682;28;20445;-72
2022/03/17 12:52:45;;;;;;;63.53;40.23;;;15.90;33.10;;;;;;4986187;28;20469;-72